Time;durP1;ratioP1;P1;durP2;ratioP2;P2;SDS_P1;SDS_P2;PMS_P1;PMS_P2;Temp;Humidity;BMP_temperature;BMP_pressure;BME280_temperature;BME280_humidity;BME280_pressure;Samples;Min_cycle;Max_cycle;Signal;HPM_P1;HPM_P2
2023/09/20 00:00:11;;;;;;;7.20;2.22;;;;;;;15.99;69.86;98365.13;4987260;28;20124;-84
2023/09/20 00:02:39;;;;;;;4.90;1.77;;;;;;;16.02;69.94;98375.31;5006064;28;20067;-84
2023/09/20 00:05:14;;;;;;;5.05;2.42;;;;;;;15.97;69.47;98366.53;4994830;28;20034;-85
2023/09/20 00:07:41;;;;;;;6.03;1.80;;;;;;;15.89;69.65;98354.56;5018042;28;20033;-85
2023/09/20 00:10:12;;;;;;;4.03;1.80;;;;;;;15.85;69.83;98361.63;5036262;28;20056;-85
2023/09/20 00:12:39;;;;;;;4.22;1.73;;;;;;;15.58;70.08;98321.94;5003996;28;20030;-85
2023/09/20 00:15:05;;;;;;;4.05;2.10;;;;;;;15.71;69.93;98323.91;5016565;28;20025;-85
2023/09/20 00:17:33;;;;;;;2.33;2.13;;;;;;;15.60;70.10;98327.03;5011675;28;20049;-85
2023/09/20 00:19:59;;;;;;;6.13;2.10;;;;;;;15.80;70.69;98385.09;5001086;28;20494;-86
2023/09/20 00:22:24;;;;;;;7.88;2.38;;;;;;;15.74;71.22;98390.59;5003091;28;20038;-85
2023/09/20 00:24:50;;;;;;;2.78;2.53;;;;;;;15.72;69.92;98338.97;5022591;28;20034;-86
2023/09/20 00:27:16;;;;;;;5.05;2.60;;;;;;;15.89;70.56;98392.22;5004379;28;20034;-85
2023/09/20 00:29:41;;;;;;;4.70;2.08;;;;;;;15.78;70.77;98361.19;5006567;28;20029;-85
2023/09/20 00:32:07;;;;;;;4.00;2.08;;;;;;;15.85;70.26;98369.69;4999368;28;20033;-85
2023/09/20 00:34:32;;;;;;;5.15;2.40;;;;;;;15.93;70.19;98387.06;4980879;28;20429;-85
2023/09/20 00:36:58;;;;;;;5.22;2.13;;;;;;;15.85;70.71;98364.31;4997351;28;20026;-87
2023/09/20 00:39:23;;;;;;;6.32;2.40;;;;;;;15.77;70.48;98378.41;4993766;28;20089;-87
2023/09/20 00:41:49;;;;;;;5.10;2.08;;;;;;;15.88;70.75;98385.22;4993128;28;20827;-87
2023/09/20 00:44:14;;;;;;;3.83;2.28;;;;;;;15.50;71.87;98376.44;4991286;28;20500;-87
2023/09/20 00:46:42;;;;;;;5.97;2.95;;;;;;;15.66;70.28;98344.72;5005277;28;20022;-87
2023/09/20 00:49:07;;;;;;;6.78;2.25;;;;;;;15.84;70.58;98378.84;4977631;28;20037;-87
2023/09/20 00:51:33;;;;;;;4.35;2.50;;;;;;;15.65;71.58;98378.06;5009777;28;20141;-87
2023/09/20 00:54:03;;;;;;;3.92;1.85;;;;;;;15.76;70.95;98382.22;5005067;28;20041;-86
2023/09/20 00:56:29;;;;;;;5.32;2.33;;;;;;;16.02;70.09;98386.09;5007507;28;20044;-85
2023/09/20 00:58:56;;;;;;;3.08;1.83;;;;;;;15.94;70.83;98388.66;5009823;28;20030;-86
2023/09/20 01:01:26;;;;;;;3.00;2.10;;;;;;;15.93;70.83;98387.06;5008874;28;20042;-85
2023/09/20 01:03:52;;;;;;;5.60;2.20;;;;;;;15.80;70.63;98356.31;5008271;28;20022;-85
2023/09/20 01:06:17;;;;;;;3.90;2.15;;;;;;;15.76;70.69;98371.44;5009176;28;20025;-86
2023/09/20 01:08:46;;;;;;;6.93;2.17;;;;;;;15.94;70.82;98377.91;5011517;28;20393;-85
2023/09/20 01:11:12;;;;;;;4.18;2.55;;;;;;;15.93;70.75;98373.59;5007751;28;20500;-85
2023/09/20 01:13:38;;;;;;;2.53;1.80;;;;;;;15.98;70.43;98390.47;4975212;28;20030;-86
2023/09/20 01:16:03;;;;;;;6.78;2.58;;;;;;;15.99;70.89;98386.66;5012059;28;20077;-86
2023/09/20 01:18:28;;;;;;;5.70;2.45;;;;;;;16.02;70.36;98379.91;4995169;28;20030;-86
2023/09/20 01:20:54;;;;;;;9.70;2.40;;;;;;;15.43;71.76;98351.78;5006787;28;20048;-86
2023/09/20 01:23:20;;;;;;;5.82;2.45;;;;;;;15.84;70.72;98370.78;4978756;28;20032;-86
2023/09/20 01:25:46;;;;;;;5.93;2.17;;;;;;;15.81;70.82;98357.91;5009636;28;20032;-86
2023/09/20 01:28:12;;;;;;;5.28;1.75;;;;;;;16.01;70.78;98384.47;5013396;28;20048;-86
2023/09/20 01:30:41;;;;;;;8.30;2.80;;;;;;;15.95;71.23;98390.25;4993993;28;20114;-86
2023/09/20 01:33:07;;;;;;;7.28;2.50;;;;;;;15.90;70.79;98380.34;4995816;28;20030;-86
2023/09/20 01:35:33;;;;;;;9.35;3.00;;;;;;;15.95;71.05;98379.47;5013697;28;20390;-86
2023/09/20 01:37:59;;;;;;;3.47;2.42;;;;;;;15.88;71.25;98382.53;5010304;28;20040;-86
2023/09/20 01:40:26;;;;;;;8.15;2.45;;;;;;;15.93;71.02;98387.84;5012272;28;20029;-85
2023/09/20 01:42:52;;;;;;;5.32;2.75;;;;;;;15.94;71.44;98386.78;5012302;28;20508;-85
2023/09/20 01:45:19;;;;;;;2.72;2.10;;;;;;;16.00;70.96;98388.28;5010503;28;20033;-86
2023/09/20 01:47:49;;;;;;;6.13;2.92;;;;;;;15.38;73.11;98359.06;5008875;28;20843;-85
2023/09/20 01:50:25;;;;;;;7.97;2.55;;;;;;;15.29;73.08;98368.91;4993575;28;20393;-85
2023/09/20 01:52:55;;;;;;;7.13;2.63;;;;;;;15.49;72.78;98363.25;5013138;28;20057;-85
2023/09/20 01:55:22;;;;;;;3.60;2.35;;;;;;;15.61;71.71;98369.00;5011094;28;20026;-86
2023/09/20 01:57:48;;;;;;;4.72;2.40;;;;;;;15.78;71.75;98374.66;4998423;28;20358;-86
2023/09/20 02:03:16;;;;;;;6.40;2.42;;;;;;;15.67;72.57;98378.59;5000534;28;20490;-86
2023/09/20 02:05:41;;;;;;;4.70;2.60;;;;;;;15.74;72.50;98368.25;5008617;28;20564;-86
2023/09/20 02:08:08;;;;;;;4.95;2.20;;;;;;;15.67;72.13;98357.06;4994310;28;20069;-86
2023/09/20 02:10:34;;;;;;;6.32;2.42;;;;;;;15.53;72.83;98345.47;5006367;28;20509;-86
2023/09/20 02:13:00;;;;;;;4.82;2.33;;;;;;;15.55;72.55;98337.88;4988630;28;20049;-86
2023/09/20 02:15:27;;;;;;;3.80;2.28;;;;;;;15.59;73.44;98363.91;5004980;28;20021;-86
2023/09/20 02:17:54;;;;;;;4.05;2.90;;;;;;;15.21;74.45;98366.84;5004078;28;20539;-86
2023/09/20 02:20:23;;;;;;;5.30;2.70;;;;;;;15.57;73.25;98371.44;5002347;28;20026;-86
2023/09/20 02:22:53;;;;;;;6.28;2.67;;;;;;;15.74;72.84;98379.03;5006454;28;20022;-86
2023/09/20 02:25:22;;;;;;;3.33;2.28;;;;;;;15.35;73.62;98336.28;4987727;28;20441;-86
2023/09/20 02:27:49;;;;;;;7.30;3.28;;;;;;;15.68;72.67;98380.97;5003323;28;20029;-87
2023/09/20 02:30:16;;;;;;;3.05;2.40;;;;;;;15.68;73.30;98369.44;4987758;28;20030;-86
2023/09/20 02:32:42;;;;;;;6.20;2.25;;;;;;;15.55;73.66;98370.16;5004188;28;20030;-86
2023/09/20 02:35:09;;;;;;;6.15;2.15;;;;;;;15.78;72.50;98366.56;5008589;28;20029;-87
2023/09/20 02:37:35;;;;;;;15.20;2.97;;;;;;;15.33;75.08;98367.22;5009348;28;20034;-86
2023/09/20 02:40:07;;;;;;;3.35;2.38;;;;;;;15.25;74.63;98344.47;4992897;28;20116;-86
2023/09/20 02:42:40;;;;;;;8.30;2.78;;;;;;;15.30;75.45;98363.22;5023143;28;20473;-87
2023/09/20 02:45:07;;;;;;;3.60;2.35;;;;;;;15.08;76.08;98367.56;4996159;28;20042;-87
2023/09/20 02:47:32;;;;;;;4.75;2.22;;;;;;;15.37;74.86;98360.19;4989375;28;20497;-87
2023/09/20 02:49:57;;;;;;;5.68;2.42;;;;;;;15.52;74.34;98376.13;4978695;28;20033;-87
2023/09/20 02:52:23;;;;;;;7.47;2.80;;;;;;;15.65;73.90;98368.13;4999702;28;20490;-86
2023/09/20 02:54:49;;;;;;;5.38;2.50;;;;;;;15.50;74.09;98360.28;5011874;28;20481;-86
2023/09/20 02:57:15;;;;;;;6.20;2.72;;;;;;;15.73;72.73;98345.13;4989698;28;20065;-86
2023/09/20 02:59:40;;;;;;;7.85;2.55;;;;;;;15.69;73.27;98346.81;5022403;28;20030;-86
2023/09/20 03:02:06;;;;;;;3.17;2.50;;;;;;;15.62;73.27;98338.28;5005855;28;20034;-86
2023/09/20 03:04:32;;;;;;;6.05;2.60;;;;;;;15.67;73.26;98365.13;4997405;28;20128;-87
2023/09/20 03:06:58;;;;;;;4.78;2.20;;;;;;;15.60;73.54;98340.47;4997844;28;20517;-86
2023/09/20 03:09:24;;;;;;;5.40;2.53;;;;;;;15.39;74.85;98341.84;4993700;28;20030;-85
2023/09/20 03:11:50;;;;;;;6.22;2.50;;;;;;;15.37;74.65;98344.03;4990117;28;21801;-86
2023/09/20 03:14:16;;;;;;;6.40;2.45;;;;;;;15.18;75.96;98341.34;4977183;28;20030;-86
2023/09/20 03:16:43;;;;;;;2.95;2.45;;;;;;;15.12;76.62;98344.38;4978216;28;20116;-85
2023/09/20 03:19:09;;;;;;;3.88;3.00;;;;;;;15.35;75.54;98352.41;4986328;28;20754;-86
2023/09/20 03:21:35;;;;;;;8.60;3.60;;;;;;;15.08;76.58;98356.81;5008220;28;20132;-86
2023/09/20 03:24:05;;;;;;;6.57;2.75;;;;;;;15.16;75.72;98334.69;5010020;28;20398;-85
2023/09/20 03:26:32;;;;;;;5.05;2.65;;;;;;;15.46;74.51;98345.03;4992469;28;20071;-86
2023/09/20 03:28:57;;;;;;;3.45;2.53;;;;;;;15.64;73.80;98354.94;4993215;28;20026;-85
2023/09/20 03:31:23;;;;;;;4.93;2.38;;;;;;;15.82;73.44;98354.13;5009502;28;20339;-87
2023/09/20 03:33:49;;;;;;;5.90;2.70;;;;;;;15.51;74.87;98353.78;5009499;28;20069;-86
2023/09/20 03:36:17;;;;;;;6.30;2.63;;;;;;;15.27;75.14;98334.22;5009447;28;20109;-86
2023/09/20 03:38:43;;;;;;;5.50;3.17;;;;;;;15.74;73.53;98352.09;4993985;28;20030;-86
2023/09/20 03:41:10;;;;;;;4.22;2.35;;;;;;;15.66;74.34;98355.47;4989258;28;20040;-87
2023/09/20 03:43:35;;;;;;;13.02;3.20;;;;;;;15.40;75.25;98343.44;5000433;28;20037;-86
2023/09/20 03:46:01;;;;;;;4.13;2.67;;;;;;;15.67;73.67;98349.78;4994081;28;20038;-86
2023/09/20 03:48:27;;;;;;;7.47;2.83;;;;;;;15.61;73.86;98352.84;4992319;28;20030;-87
2023/09/20 03:50:52;;;;;;;8.20;2.75;;;;;;;15.57;74.07;98335.72;5006991;28;20398;-87
2023/09/20 03:53:18;;;;;;;6.22;2.55;;;;;;;15.55;73.65;98337.88;4988585;28;20076;-86
2023/09/20 03:55:45;;;;;;;5.45;2.33;;;;;;;15.67;74.16;98352.47;4986653;28;20133;-86
2023/09/20 03:58:11;;;;;;;4.70;2.80;;;;;;;15.16;75.88;98335.47;5005476;28;20128;-87
2023/09/20 04:00:38;;;;;;;6.90;2.85;;;;;;;15.49;74.77;98339.03;5006513;28;20117;-87
2023/09/20 04:03:12;;;;;;;7.03;2.67;;;;;;;15.42;74.21;98331.31;5009023;28;20549;-86
2023/09/20 04:05:38;;;;;;;6.15;2.72;;;;;;;15.26;74.93;98310.31;5006846;28;20504;-87
2023/09/20 04:08:04;;;;;;;4.70;2.65;;;;;;;15.26;75.08;98313.00;5004860;28;20433;-86
2023/09/20 04:10:29;;;;;;;4.13;2.70;;;;;;;15.27;74.73;98328.84;4985443;28;20026;-87
2023/09/20 04:12:54;;;;;;;3.60;2.40;;;;;;;15.30;74.89;98328.28;4990486;28;20037;-85
2023/09/20 04:15:20;;;;;;;8.27;3.28;;;;;;;14.67;77.65;98330.47;5008977;28;20096;-86
2023/09/20 04:21:25;;;;;;;3.33;2.30;;;;;;;15.31;75.42;98335.22;4995783;28;20049;-86
2023/09/20 04:24:21;;;;;;;7.05;3.33;;;;;;;15.35;74.74;98324.72;5010548;28;20034;-86
2023/09/20 04:27:02;;;;;;;4.63;2.85;;;;;;;14.10;76.99;98209.75;5009306;28;20377;-87
2023/09/20 04:29:33;;;;;;;4.53;2.30;;;;;;;15.09;75.11;98312.72;5009379;28;20029;-87
2023/09/20 04:31:58;;;;;;;6.07;2.47;;;;;;;15.00;76.20;98332.16;5009712;28;20029;-87
2023/09/20 04:35:49;;;;;;;2.95;2.13;;;;;;;14.54;76.22;98261.34;5007331;28;20500;-87
2023/09/20 04:38:15;;;;;;;3.78;2.42;;;;;;;15.08;75.71;98324.56;4988297;28;20053;-87
2023/09/20 04:40:40;;;;;;;4.70;2.13;;;;;;;14.99;76.17;98333.28;4991836;28;20037;-87
2023/09/20 04:43:06;;;;;;;5.35;2.80;;;;;;;15.16;75.25;98313.94;5014483;28;20026;-87
2023/09/20 04:45:31;;;;;;;4.63;2.42;;;;;;;14.39;76.87;98232.00;5010470;28;20034;-85
2023/09/20 04:47:57;;;;;;;7.93;2.67;;;;;;;15.29;75.14;98313.22;4991127;28;20044;-87
2023/09/20 04:50:22;;;;;;;5.95;3.28;;;;;;;15.13;75.45;98314.56;4979864;28;20037;-88
2023/09/20 04:52:50;;;;;;;4.57;2.70;;;;;;;14.87;74.94;98249.59;4978947;28;20042;-87
2023/09/20 04:55:16;;;;;;;6.20;2.53;;;;;;;15.23;75.05;98302.81;5025495;28;20090;-87
2023/09/20 04:57:41;;;;;;;4.93;2.53;;;;;;;15.46;74.32;98318.13;4977242;28;20486;-86
2023/09/20 05:00:08;;;;;;;5.35;3.00;;;;;;;15.23;74.15;98273.25;4979242;28;20120;-87
2023/09/20 05:02:34;;;;;;;7.93;2.58;;;;;;;15.36;74.92;98312.84;4996681;28;20042;-87
2023/09/20 05:04:59;;;;;;;6.65;2.50;;;;;;;15.33;75.16;98322.28;4979025;28;20034;-87
2023/09/20 05:07:27;;;;;;;6.50;2.75;;;;;;;15.28;74.52;98302.75;4996221;28;20465;-88
2023/09/20 05:09:52;;;;;;;5.00;2.53;;;;;;;14.95;74.99;98286.56;5013026;28;20410;-87
2023/09/20 05:12:17;;;;;;;4.57;2.63;;;;;;;15.03;74.71;98279.72;5021496;28;20122;-87
2023/09/20 05:14:43;;;;;;;9.60;2.60;;;;;;;15.30;74.86;98312.13;4997523;28;20076;-87
2023/09/20 05:17:08;;;;;;;4.88;2.83;;;;;;;15.06;75.97;98321.38;4979608;28;20034;-87
2023/09/20 05:19:35;;;;;;;4.20;2.92;;;;;;;15.45;75.21;98338.03;4993659;28;20394;-87
2023/09/20 05:22:01;;;;;;;5.80;2.78;;;;;;;15.35;74.82;98333.59;5009960;28;20457;-87
2023/09/20 05:24:26;;;;;;;5.53;2.72;;;;;;;15.15;75.37;98315.06;4998229;28;20157;-87
2023/09/20 05:26:52;;;;;;;6.93;3.55;;;;;;;15.01;76.63;98331.09;5014256;28;20026;-87
2023/09/20 05:29:18;;;;;;;6.97;2.97;;;;;;;14.95;75.59;98281.19;4984813;28;20050;-87
2023/09/20 05:31:43;;;;;;;6.28;2.83;;;;;;;15.05;76.36;98306.34;4984216;28;20076;-87
2023/09/20 05:34:08;;;;;;;6.40;3.42;;;;;;;15.09;76.50;98326.97;4991631;28;20078;-87
2023/09/20 05:36:34;;;;;;;8.15;2.78;;;;;;;14.93;77.31;98320.19;5001094;28;20041;-87
2023/09/20 05:38:59;;;;;;;6.70;2.85;;;;;;;14.99;77.39;98335.97;5015739;28;20105;-87
2023/09/20 05:41:28;;;;;;;6.00;2.60;;;;;;;14.83;77.12;98310.38;5012074;28;20112;-87
2023/09/20 05:43:53;;;;;;;4.78;2.45;;;;;;;14.95;76.94;98318.00;4992554;28;20041;-87
2023/09/20 05:46:18;;;;;;;4.47;2.40;;;;;;;14.95;77.01;98320.72;5001484;28;20036;-87
2023/09/20 05:48:44;;;;;;;3.08;2.17;;;;;;;15.11;77.18;98338.22;4982527;28;20030;-87
2023/09/20 05:51:14;;;;;;;6.80;2.60;;;;;;;15.12;76.81;98329.06;5016855;28;20034;-87
2023/09/20 05:53:42;;;;;;;4.85;2.35;;;;;;;15.07;77.28;98331.03;5003514;28;20564;-86
2023/09/20 05:56:08;;;;;;;8.10;2.20;;;;;;;15.03;77.28;98320.03;5011110;28;20049;-87
2023/09/20 05:58:34;;;;;;;11.15;2.85;;;;;;;15.11;77.35;98318.63;5013804;28;20053;-87
2023/09/20 06:00:59;;;;;;;5.15;2.72;;;;;;;15.27;76.72;98341.47;4979664;28;20045;-87
2023/09/20 06:03:25;;;;;;;9.65;3.15;;;;;;;15.23;76.80;98329.72;5013960;28;20062;-88
2023/09/20 06:05:50;;;;;;;3.83;2.75;;;;;;;14.97;77.08;98291.66;5009742;28;20137;-87
2023/09/20 06:08:16;;;;;;;2.85;2.33;;;;;;;15.15;77.07;98314.25;5014895;28;20033;-87
2023/09/20 06:10:42;;;;;;;6.50;2.88;;;;;;;15.30;77.23;98327.47;4999626;28;20041;-86
2023/09/20 06:13:08;;;;;;;7.10;2.97;;;;;;;15.29;77.57;98323.19;4998381;28;20465;-87
2023/09/20 06:15:36;;;;;;;4.32;2.55;;;;;;;15.14;77.47;98291.94;4995334;28;20042;-87
2023/09/20 06:18:02;;;;;;;5.95;2.55;;;;;;;15.35;77.46;98311.28;5007206;28;20026;-85
2023/09/20 06:20:28;;;;;;;7.60;3.38;;;;;;;15.43;76.51;98307.91;5012984;28;20061;-88
2023/09/20 06:22:54;;;;;;;11.75;3.33;;;;;;;15.38;77.04;98305.28;4981801;28;20097;-87
2023/09/20 06:25:21;;;;;;;4.70;2.35;;;;;;;15.46;77.21;98308.16;4997950;28;20540;-87
2023/09/20 06:27:50;;;;;;;4.97;3.10;;;;;;;15.54;76.58;98295.94;5016119;28;20029;-87
2023/09/20 06:30:17;;;;;;;7.22;2.95;;;;;;;15.18;76.67;98244.56;5017275;28;20116;-87
2023/09/20 06:32:44;;;;;;;3.28;2.00;;;;;;;15.64;76.31;98298.44;5017149;28;20085;-87
2023/09/20 06:35:10;;;;;;;10.18;3.17;;;;;;;15.39;77.04;98261.19;4997948;28;20112;-87
2023/09/20 06:37:37;;;;;;;4.95;2.20;;;;;;;15.68;76.74;98297.56;5014669;28;20030;-87
2023/09/20 06:40:04;;;;;;;5.25;2.65;;;;;;;15.64;77.41;98304.63;5008568;28;20045;-87
2023/09/20 06:42:30;;;;;;;6.80;3.25;;;;;;;15.58;76.98;98291.56;5016813;28;20109;-87
2023/09/20 06:44:56;;;;;;;7.38;2.80;;;;;;;15.35;77.09;98258.28;4996353;28;20029;-87
2023/09/20 06:47:24;;;;;;;7.35;2.80;;;;;;;15.74;76.52;98315.25;4984001;28;20038;-88
2023/09/20 06:49:51;;;;;;;5.93;2.58;;;;;;;15.33;76.39;98257.75;5008917;28;20034;-87
2023/09/20 06:52:17;;;;;;;4.05;2.53;;;;;;;15.64;77.29;98317.28;5017087;28;20132;-87
2023/09/20 06:54:45;;;;;;;6.50;2.63;;;;;;;15.63;77.63;98321.88;5013581;28;20121;-87
2023/09/20 06:57:17;;;;;;;2.63;1.83;;;;;;;15.71;76.79;98329.28;5003943;28;20065;-87
2023/09/20 06:59:44;;;;;;;9.60;3.55;;;;;;;15.37;76.64;98266.88;5016973;28;20104;-87
2023/09/20 07:02:12;;;;;;;7.00;2.80;;;;;;;15.56;78.47;98302.63;5016236;28;20045;-87
2023/09/20 07:04:39;;;;;;;5.65;1.92;;;;;;;15.83;76.76;98323.44;5015415;28;20025;-87
2023/09/20 07:07:05;;;;;;;6.22;2.47;;;;;;;15.74;76.83;98298.28;5013953;28;20033;-87
2023/09/20 07:09:31;;;;;;;7.28;2.42;;;;;;;15.82;76.43;98292.22;5012175;28;20026;-87
2023/09/20 07:11:57;;;;;;;4.82;2.25;;;;;;;15.96;77.44;98314.59;5015466;28;20046;-87
2023/09/20 07:14:23;;;;;;;3.83;2.13;;;;;;;15.65;77.14;98270.47;4999206;28;20125;-87
2023/09/20 07:16:51;;;;;;;3.05;1.92;;;;;;;15.83;77.24;98291.16;4982217;28;20120;-87
2023/09/20 07:19:18;;;;;;;6.10;2.85;;;;;;;15.77;77.93;98270.78;5014716;28;20493;-87
2023/09/20 07:21:45;;;;;;;3.90;2.40;;;;;;;16.15;77.01;98311.81;4997631;28;20405;-87
2023/09/20 07:24:12;;;;;;;3.35;2.15;;;;;;;15.98;77.67;98273.91;5014006;28;20525;-87
2023/09/20 07:26:45;;;;;;;6.95;2.58;;;;;;;16.10;77.40;98293.88;4997961;28;20033;-87
2023/09/20 07:29:14;;;;;;;4.50;2.17;;;;;;;16.19;77.29;98285.91;5013706;28;20399;-87
2023/09/20 07:31:42;;;;;;;9.75;3.05;;;;;;;16.41;77.46;98310.25;4982866;28;20026;-87
2023/09/20 07:34:11;;;;;;;4.75;2.38;;;;;;;16.34;77.35;98299.88;5013435;28;20073;-87
2023/09/20 07:36:40;;;;;;;7.85;2.63;;;;;;;16.28;76.99;98284.91;5014245;28;20121;-87
2023/09/20 07:39:08;;;;;;;11.10;2.78;;;;;;;16.43;76.98;98303.47;4997467;28;20529;-87
2023/09/20 07:41:37;;;;;;;3.20;2.22;;;;;;;16.43;77.05;98299.97;5006597;28;20030;-87
2023/09/20 07:44:05;;;;;;;6.72;2.35;;;;;;;16.61;76.79;98307.19;4990183;28;20030;-87
2023/09/20 07:46:34;;;;;;;6.78;2.45;;;;;;;16.58;76.74;98296.22;4997459;28;20034;-87
2023/09/20 07:49:09;;;;;;;4.57;3.03;;;;;;;16.51;77.14;98280.47;4983127;28;20040;-87
2023/09/20 07:51:36;;;;;;;3.67;2.10;;;;;;;16.35;77.02;98261.09;4997435;28;20026;-87
2023/09/20 07:54:02;;;;;;;4.65;2.15;;;;;;;16.74;77.13;98303.69;5013691;28;20022;-87
2023/09/20 07:56:28;;;;;;;3.47;2.20;;;;;;;16.74;76.50;98305.56;4997538;28;20030;-87
2023/09/20 07:58:54;;;;;;;6.00;2.60;;;;;;;16.48;76.35;98256.78;4981951;28;20029;-88
2023/09/20 08:01:20;;;;;;;6.63;2.35;;;;;;;16.79;76.14;98294.69;5006045;28;20030;-88
2023/09/20 08:03:50;;;;;;;4.20;2.40;;;;;;;16.89;76.05;98305.25;4971924;28;20165;-88
2023/09/20 08:06:17;;;;;;;5.45;2.38;;;;;;;16.96;76.15;98297.56;4991401;28;20081;-88
2023/09/20 08:08:43;;;;;;;3.90;2.63;;;;;;;16.84;76.41;98259.56;5007678;28;20034;-88
2023/09/20 08:11:08;;;;;;;4.95;2.53;;;;;;;17.18;76.27;98316.50;4996985;28;20436;-87
2023/09/20 08:13:34;;;;;;;4.03;2.05;;;;;;;16.83;75.27;98255.25;5013588;28;20025;-87
2023/09/20 08:16:02;;;;;;;4.80;2.00;;;;;;;16.90;75.10;98258.34;4999738;28;20037;-87
2023/09/20 08:21:12;;;;;;;8.43;2.28;;;;;;;17.23;75.65;98308.28;5009718;28;20535;-88
2023/09/20 09:02:12;;;;;;;3.03;2.28;;;;;;;17.78;74.50;98296.19;5011929;28;20120;-88
2023/09/20 09:04:38;;;;;;;5.25;2.38;;;;;;;17.83;74.92;98290.66;5013453;28;20038;-88
2023/09/20 09:07:04;;;;;;;4.32;2.00;;;;;;;17.84;73.84;98283.38;5005614;28;20041;-88
2023/09/20 09:09:30;;;;;;;6.32;2.17;;;;;;;18.00;73.88;98289.94;4992949;28;20030;-87
2023/09/20 09:11:57;;;;;;;2.92;2.00;;;;;;;17.99;73.84;98296.47;5023253;28;20030;-88
2023/09/20 09:14:24;;;;;;;5.28;2.55;;;;;;;18.09;73.98;98293.50;5008311;28;20026;-88
2023/09/20 09:17:00;;;;;;;7.85;2.75;;;;;;;18.02;73.78;98287.72;4991252;28;20034;-88
2023/09/20 09:19:25;;;;;;;7.00;2.28;;;;;;;18.10;73.92;98305.91;5009690;28;20057;-88
2023/09/20 09:21:51;;;;;;;8.15;2.75;;;;;;;17.97;75.13;98274.38;4999703;28;20037;-88
2023/09/20 09:24:17;;;;;;;5.47;2.22;;;;;;;18.26;74.28;98298.19;4998106;28;20033;-88
2023/09/20 09:26:45;;;;;;;8.68;2.78;;;;;;;18.17;73.66;98273.84;5018092;28;20045;-88
2023/09/20 09:29:17;;;;;;;5.25;2.08;;;;;;;18.34;73.17;98282.03;5016479;28;20393;-88
2023/09/20 09:31:52;;;;;;;3.28;1.95;;;;;;;18.23;73.03;98253.69;5010976;28;20022;-88
2023/09/20 09:34:19;;;;;;;6.70;2.03;;;;;;;18.12;72.91;98243.47;5025570;28;20440;-88
2023/09/20 09:36:45;;;;;;;4.78;2.45;;;;;;;18.17;72.80;98246.03;5015640;28;20026;-88
2023/09/20 09:39:14;;;;;;;4.47;2.15;;;;;;;18.51;72.76;98292.09;4998614;28;20115;-88
2023/09/20 09:41:46;;;;;;;5.47;2.30;;;;;;;18.53;73.71;98287.19;5014963;28;20038;-88
2023/09/20 09:44:13;;;;;;;5.93;2.13;;;;;;;18.54;72.20;98299.59;4995122;28;20049;-88
2023/09/20 09:46:39;;;;;;;3.15;1.73;;;;;;;18.47;72.25;98291.94;5015128;28;20017;-88
2023/09/20 09:49:12;;;;;;;4.88;2.20;;;;;;;18.46;72.35;98271.44;4997242;28;20033;-88
2023/09/20 09:51:52;;;;;;;3.10;2.08;;;;;;;18.56;72.09;98278.47;5008272;28;20497;-88
2023/09/20 09:54:20;;;;;;;3.33;2.05;;;;;;;18.51;72.08;98243.47;5024298;28;20391;-88
2023/09/20 09:56:46;;;;;;;4.20;1.90;;;;;;;18.81;71.91;98293.94;5007969;28;20040;-88
2023/09/20 09:59:12;;;;;;;2.85;1.85;;;;;;;18.66;71.61;98265.44;5012149;28;20029;-88
2023/09/20 10:01:39;;;;;;;3.35;1.92;;;;;;;18.87;71.68;98291.91;4999362;28;20499;-88
2023/09/20 10:04:07;;;;;;;5.20;2.50;;;;;;;18.68;71.29;98254.31;5015648;28;20030;-88
2023/09/20 10:06:37;;;;;;;3.13;2.15;;;;;;;18.99;71.08;98294.75;4988564;28;20033;-88
2023/09/20 10:09:11;;;;;;;3.50;1.80;;;;;;;18.89;71.15;98274.25;5016767;28;20129;-88
2023/09/20 10:11:38;;;;;;;2.92;2.03;;;;;;;19.02;71.02;98275.22;5010494;28;20109;-88
2023/09/20 10:14:10;;;;;;;8.15;1.90;;;;;;;18.91;70.57;98276.63;5028450;28;20029;-88
2023/09/20 10:16:38;;;;;;;4.68;2.10;;;;;;;19.07;70.45;98278.53;5010519;28;20034;-88
2023/09/20 10:19:08;;;;;;;4.90;2.10;;;;;;;19.13;70.46;98277.25;5030739;28;20037;-88
2023/09/20 10:21:37;;;;;;;3.78;2.25;;;;;;;18.63;70.00;98171.44;5015048;28;20076;-88
2023/09/20 10:24:09;;;;;;;3.63;2.05;;;;;;;19.24;70.72;98258.84;5014985;28;20030;-88
2023/09/20 10:26:39;;;;;;;2.67;2.20;;;;;;;19.47;69.62;98262.97;5015156;28;20123;-88
2023/09/20 10:29:27;;;;;;;3.70;2.63;;;;;;;19.47;69.28;98237.81;4980355;28;20060;-88
2023/09/20 10:32:08;;;;;;;4.30;2.30;;;;;;;19.68;69.25;98247.63;4979233;28;20034;-88
2023/09/20 10:34:39;;;;;;;4.82;2.45;;;;;;;19.83;69.24;98249.84;5011711;28;20544;-88
2023/09/20 10:37:10;;;;;;;4.60;2.22;;;;;;;19.71;68.91;98230.75;5008675;28;20036;-88
2023/09/20 10:39:38;;;;;;;3.75;2.40;;;;;;;19.87;68.87;98247.28;5010390;28;20034;-88
2023/09/20 10:42:12;;;;;;;3.50;1.80;;;;;;;19.96;68.96;98254.25;5014864;28;20044;-88
2023/09/20 10:44:41;;;;;;;3.10;2.22;;;;;;;19.85;68.47;98238.69;5014698;28;20041;-88
2023/09/20 10:47:13;;;;;;;5.07;2.63;;;;;;;20.06;68.68;98266.66;5013828;28;20527;-88
2023/09/20 10:49:42;;;;;;;2.88;1.90;;;;;;;20.16;68.18;98264.38;5015787;28;20025;-88
2023/09/20 10:52:08;;;;;;;4.38;2.00;;;;;;;19.88;68.49;98210.94;5012985;28;20034;-88
2023/09/20 10:54:38;;;;;;;4.43;2.28;;;;;;;20.16;68.52;98266.31;4997420;28;20030;-88
2023/09/20 10:57:07;;;;;;;9.20;2.53;;;;;;;20.14;68.61;98260.41;5013542;28;20029;-88
2023/09/20 10:59:34;;;;;;;6.82;2.30;;;;;;;20.02;68.28;98235.94;5016196;28;20064;-88
2023/09/20 11:02:05;;;;;;;3.92;2.00;;;;;;;20.16;68.28;98250.03;5022152;28;20049;-88
2023/09/20 11:04:30;;;;;;;5.45;2.83;;;;;;;20.43;67.30;98246.94;5001980;28;20080;-88
2023/09/20 11:07:02;;;;;;;4.82;2.10;;;;;;;20.54;67.23;98252.78;5007394;28;20485;-87
2023/09/20 11:09:31;;;;;;;5.22;1.90;;;;;;;20.56;66.76;98251.31;5013291;28;20029;-85
2023/09/20 11:12:04;;;;;;;3.13;1.88;;;;;;;20.60;65.52;98237.88;5010418;28;20026;-85
2023/09/20 11:14:31;;;;;;;7.18;1.92;;;;;;;20.74;65.37;98225.69;5000214;28;20019;-85
2023/09/20 11:16:57;;;;;;;4.63;2.05;;;;;;;20.84;64.96;98235.34;5008340;28;20033;-85
2023/09/20 11:19:22;;;;;;;3.22;1.90;;;;;;;20.93;64.99;98226.03;5011643;28;20037;-85
2023/09/20 11:21:48;;;;;;;1.98;1.60;;;;;;;21.29;64.40;98241.75;5005927;28;20026;-85
2023/09/20 11:24:15;;;;;;;1.95;1.63;;;;;;;21.15;63.59;98233.06;5004059;28;20038;-84
2023/09/20 11:26:43;;;;;;;4.22;1.60;;;;;;;21.20;63.16;98226.66;5008902;28;20521;-85
2023/09/20 11:29:10;;;;;;;2.38;1.77;;;;;;;21.33;63.72;98237.22;5010916;28;20396;-85
2023/09/20 11:31:36;;;;;;;3.78;1.90;;;;;;;21.22;63.59;98229.81;5001987;28;20637;-86
2023/09/20 11:34:03;;;;;;;2.13;1.80;;;;;;;21.01;64.04;98223.59;5010476;28;20478;-85
2023/09/20 11:36:37;;;;;;;7.68;2.40;;;;;;;20.92;64.01;98213.56;4994557;28;20029;-85
2023/09/20 11:39:05;;;;;;;5.63;2.00;;;;;;;21.06;64.29;98243.19;4994720;28;20026;-85
2023/09/20 11:41:32;;;;;;;5.30;2.05;;;;;;;20.91;64.56;98228.28;5010870;28;20021;-85
2023/09/20 11:43:58;;;;;;;3.33;1.98;;;;;;;20.88;64.25;98209.94;5009005;28;20478;-85
2023/09/20 11:46:35;;;;;;;4.55;2.45;;;;;;;20.92;64.29;98226.38;5001065;28;20033;-85
2023/09/20 11:49:06;;;;;;;1.65;1.45;;;;;;;20.62;65.05;98220.19;5003256;28;20035;-85
2023/09/20 11:51:36;;;;;;;2.70;1.38;;;;;;;20.53;64.95;98211.28;5002060;28;20639;-85
2023/09/20 11:54:11;;;;;;;5.80;2.05;;;;;;;20.39;64.94;98226.22;4989454;28;20034;-85
2023/09/20 11:56:38;;;;;;;;;;;;;;;20.32;65.04;98218.59;5009557;28;20053;-85
2023/09/20 11:59:11;;;;;;;5.37;2.27;;;;;;;20.13;65.27;98208.16;4988834;28;19971;-85
2023/09/20 12:01:43;;;;;;;9.40;1.83;;;;;;;20.10;65.13;98211.50;5004119;28;20029;-85
2023/09/20 12:04:09;;;;;;;3.53;2.08;;;;;;;20.08;65.20;98202.91;5017356;28;20018;-85
2023/09/20 12:06:38;;;;;;;5.50;1.60;;;;;;;20.05;65.38;98213.63;5005992;28;20557;-85
2023/09/20 12:09:05;;;;;;;4.30;1.50;;;;;;;20.10;65.42;98214.22;5004972;28;20040;-85
2023/09/20 12:11:30;;;;;;;6.40;2.08;;;;;;;20.03;65.87;98221.25;5021199;28;20366;-85
2023/09/20 12:13:56;;;;;;;3.20;1.38;;;;;;;20.06;65.00;98224.13;5001872;28;20045;-85
2023/09/20 12:16:23;;;;;;;2.38;1.83;;;;;;;20.02;65.25;98211.53;5005540;28;20034;-85
2023/09/20 12:18:58;;;;;;;3.55;1.60;;;;;;;19.92;65.32;98196.44;5000968;28;20045;-84
2023/09/20 12:21:24;;;;;;;2.03;1.85;;;;;;;19.92;65.44;98207.25;4989165;28;20115;-85
2023/09/20 12:23:49;;;;;;;2.72;1.95;;;;;;;19.95;65.54;98208.53;4988115;28;20039;-85